メインページ
METAR-TAF:

METAR-TAF

空港 :

トゥーレ, グリーンランド

チューレ空軍基地

緯度: 76-32N, 経度: 068-42W, 海抜: 77m

現時点の気象観測

当レポートは19分前の22:58(UTC)に作成
西/北西の風 4kt
気温 -1°C
湿度 93%
気圧 1012 hPa
視程10km以上
高度300ftの曇り

METAR: BGTL 272258Z AUTO 30004KT 9999 OVC003 M01/M02 A2988 RMK AO2 SLP104 T10061020 FZRANO $

時間: 20:17 (23:17 UTC)

予報

当レポートは8時間24分前の14:53(UTC)に作成
予報は27日の 14時(UTC)から 28日の 15時(UTC)まで有効
東/南東の風 9kt、北東から南/南東の間で変化する
視程10km以上
高度1000ftの雲は散在している
高度3000ftの千切れ雲あり
27日の 15時(UTC)から 27日の 16時(UTC)まで徐々に
東/南東の風 9kt、北東から南/南東の間で変化する
視程10km以上
高度1000ftの雲は散在している
高度10000ftの雲は散在している
28日の 01時(UTC)から 28日の 02時(UTC)まで徐々に
東/北東の風 9kt、北東から南/南東の間で変化する
視程: 3001m
晴天

TAF: BGTL 271453Z 2714/2815 11009KT 9999 SCT010 BKN030 620309 QNH2983INS WND 050V160 BECMG 2715/2716 11009KT 9999 SCT010 SCT100 QNH2993INS WND 050V160 BECMG 2801/2802 06009KT 9999 SKC QNH2986INS WND 050V160 TX01/2714Z TNM05/2809Z LAST NO AMDS AFT 2715 NEXT 3001

4,000以上の空港の気象観測と天気予報(METAR報とTAF報)

利用可能な観測所は地図上に黄色い丸と赤い丸で示す。

丸の上にカーソルを重ねると観測所名を参照できる。

次にクリックすると気象観測と天気予報を参照できる。

マップの切り替え:黒色「×」印の緑ボタンをクリックして拡大、「-」印の緑ボタンをクリックして縮小、緑色の三角印をクリックして隣りの地図に切り替え


METAR-TAF: